Time;durP1;ratioP1;P1;durP2;ratioP2;P2;SDS_P1;SDS_P2;PMS_P1;PMS_P2;Temp;Humidity;BMP_temperature;BMP_pressure;BME280_temperature;BME280_humidity;BME280_pressure;Samples;Min_cycle;Max_cycle;Signal;HPM_P1;HPM_P2
2022/06/14 00:01:30;;;;;;;;;;;;;;;;;;4906275;28;135751;-66
2022/06/14 00:03:59;;;;;;;;;;;;;;;;;;4901523;28;118157;-66
2022/06/14 00:06:25;;;;;;;;;;;;;;;;;;4918713;28;137006;-66
2022/06/14 00:08:52;;;;;;;;;;;;;;;;;;4890469;28;126108;-66
2022/06/14 00:11:18;;;;;;;;;;;;;;;;;;4893995;28;106450;-66
2022/06/14 00:13:44;;;;;;;;;;;;;;;;;;4906314;28;128019;-66
2022/06/14 00:16:11;;;;;;;;;;;;;;;;;;4900934;28;135480;-66
2022/06/14 00:18:37;;;;;;;;;;;;;;;;;;4893910;28;106731;-66
2022/06/14 00:21:04;;;;;;;;;;;;;;;;;;4895957;27;135431;-67
2022/06/14 00:23:30;;;;;;;;;;;;;;;;;;4900389;28;136447;-66
2022/06/14 00:25:56;;;;;;;;;;;;;;;;;;4901108;28;132734;-66
2022/06/14 00:28:23;;;;;;;;;;;;;;;;;;4901394;28;125447;-66
2022/06/14 00:30:49;;;;;;;;;;;;;;;;;;4902994;28;114152;-66
2022/06/14 00:33:15;;;;;;;;;;;;;;;;;;4889880;28;129432;-66
2022/06/14 00:35:42;;;;;;;;;;;;;;;;;;4899923;28;122765;-66
2022/06/14 00:38:08;;;;;;;;;;;;;;;;;;4902590;28;118984;-66
2022/06/14 00:40:34;;;;;;;;;;;;;;;;;;4906429;28;136330;-66
2022/06/14 00:43:02;;;;;;;;;;;;;;;;;;4908699;28;118982;-66
2022/06/14 00:45:29;;;;;;;;;;;;;;;;;;4900151;28;106577;-66
2022/06/14 00:47:56;;;;;;;;;;;;;;;;;;4893229;28;128324;-66
2022/06/14 00:50:22;;;;;;;;;;;;;;;;;;4898957;28;109457;-66
2022/06/14 00:52:48;;;;;;;;;;;;;;;;;;4907198;28;136426;-66
2022/06/14 00:55:15;;;;;;;;;;;;;;;;;;4902855;28;135833;-66
2022/06/14 00:57:41;;;;;;;;;;;;;;;;;;4905859;27;111449;-66
2022/06/14 01:00:07;;;;;;;;;;;;;;;;;;4908549;28;137036;-66
2022/06/14 01:02:36;;;;;;;;;;;;;;;;;;4906985;28;136941;-66
2022/06/14 01:05:03;;;;;;;;;;;;;;;;;;4905971;28;106214;-66
2022/06/14 01:07:29;;;;;;;;;;;;;;;;;;4908536;28;128969;-66
2022/06/14 01:09:56;;;;;;;;;;;;;;;;;;4926567;27;107154;-65
2022/06/14 01:12:22;;;;;;;;;;;;;;;;;;4904148;27;119064;-66
2022/06/14 01:14:48;;;;;;;;;;;;;;;;;;4905687;28;131493;-66
2022/06/14 01:17:15;;;;;;;;;;;;;;;;;;4905521;28;105606;-66
2022/06/14 01:19:41;;;;;;;;;;;;;;;;;;4900810;28;128452;-66
2022/06/14 01:22:07;;;;;;;;;;;;;;;;;;4906328;28;107831;-66
2022/06/14 01:24:34;;;;;;;;;;;;;;;;;;4902702;28;110498;-67
2022/06/14 01:27:01;;;;;;;;;;;;;;;;;;4915034;28;106845;-65
2022/06/14 01:29:27;;;;;;;;;;;;;;;;;;4910903;28;105837;-66
2022/06/14 01:31:53;;;;;;;;;;;;;;;;;;4902714;28;124515;-66
2022/06/14 01:34:20;;;;;;;;;;;;;;;;;;4901932;28;132268;-65
2022/06/14 01:36:46;;;;;;;;;;;;;;;;;;4906470;27;106264;-66
2022/06/14 01:39:12;;;;;;;;;;;;;;;;;;4894477;28;131309;-67
2022/06/14 01:41:38;;;;;;;;;;;;;;;;;;4895837;28;129670;-66
2022/06/14 01:44:05;;;;;;;;;;;;;;;;;;4902282;28;119252;-66
2022/06/14 01:46:31;;;;;;;;;;;;;;;;;;4900679;28;105932;-66
2022/06/14 01:51:50;;;;;;;;;;;;;;;;;;4899481;28;107743;-66
2022/06/14 01:51:53;;;;;;;;;;;;;;;;;;4905412;28;119613;-66
2022/06/14 01:54:19;;;;;;;;;;;;;;;;;;4903513;28;125557;-66
2022/06/14 01:56:46;;;;;;;;;;;;;;;;;;4904659;28;114078;-66
2022/06/14 01:59:12;;;;;;;;;;;;;;;;;;4911888;28;133699;-66
2022/06/14 02:01:38;;;;;;;;;;;;;;;;;;4909897;28;113731;-66
2022/06/14 02:06:50;;;;;;;;;;;;;;;;;;4899829;28;124443;-66
2022/06/14 02:09:16;;;;;;;;;;;;;;;;;;4924853;28;110704;-66
2022/06/14 02:11:42;;;;;;;;;;;;;;;;;;4901072;28;117757;-66
2022/06/14 02:14:09;;;;;;;;;;;;;;;;;;4906611;28;130306;-65
2022/06/14 02:16:35;;;;;;;;;;;;;;;;;;4903056;28;106104;-66
2022/06/14 02:19:01;;;;;;;;;;;;;;;;;;4906655;28;114078;-66
2022/06/14 02:21:28;;;;;;;;;;;;;;;;;;4902016;28;119869;-66
2022/06/14 02:23:54;;;;;;;;;;;;;;;;;;4910240;28;105712;-66
2022/06/14 02:26:22;;;;;;;;;;;;;;;;;;4899287;27;115868;-66
2022/06/14 02:28:48;;;;;;;;;;;;;;;;;;4906028;28;115436;-66
2022/06/14 02:31:14;;;;;;;;;;;;;;;;;;4908746;28;117655;-65
2022/06/14 02:33:41;;;;;;;;;;;;;;;;;;4907922;28;128778;-66
2022/06/14 02:36:07;;;;;;;;;;;;;;;;;;4906415;28;116600;-66
2022/06/14 02:38:33;;;;;;;;;;;;;;;;;;4921604;27;118738;-66
2022/06/14 02:41:00;;;;;;;;;;;;;;;;;;4902761;28;135362;-65
2022/06/14 02:43:26;;;;;;;;;;;;;;;;;;4900485;28;118922;-66
2022/06/14 02:45:52;;;;;;;;;;;;;;;;;;4909897;28;134196;-66
2022/06/14 02:48:19;;;;;;;;;;;;;;;;;;4906481;28;125997;-65
2022/06/14 02:50:45;;;;;;;;;;;;;;;;;;4906314;28;106291;-66
2022/06/14 02:53:14;;;;;;;;;;;;;;;;;;4905274;28;117063;-66
2022/06/14 02:55:44;;;;;;;;;;;;;;;;;;4905666;27;135839;-66
2022/06/14 02:58:10;;;;;;;;;;;;;;;;;;4906821;28;124992;-66
2022/06/14 03:00:36;;;;;;;;;;;;;;;;;;4907788;28;121436;-66
2022/06/14 03:03:03;;;;;;;;;;;;;;;;;;4905972;28;108980;-66
2022/06/14 03:05:29;;;;;;;;;;;;;;;;;;4910962;28;129333;-66
2022/06/14 03:07:56;;;;;;;;;;;;;;;;;;4903955;28;110129;-65
2022/06/14 03:10:22;;;;;;;;;;;;;;;;;;4900100;28;118234;-66
2022/06/14 03:12:49;;;;;;;;;;;;;;;;;;4900535;28;107975;-65
2022/06/14 03:15:15;;;;;;;;;;;;;;;;;;4904991;28;134017;-65
2022/06/14 03:17:44;;;;;;;;;;;;;;;;;;4902871;28;115805;-65
2022/06/14 03:20:10;;;;;;;;;;;;;;;;;;4905315;28;133574;-65
2022/06/14 03:22:37;;;;;;;;;;;;;;;;;;4910921;28;120067;-66
2022/06/14 03:25:03;;;;;;;;;;;;;;;;;;4907715;28;120645;-66
2022/06/14 03:27:29;;;;;;;;;;;;;;;;;;4909433;28;107389;-66
2022/06/14 03:29:56;;;;;;;;;;;;;;;;;;4909518;28;119671;-66
2022/06/14 03:32:22;;;;;;;;;;;;;;;;;;4908154;28;127232;-67
2022/06/14 03:34:48;;;;;;;;;;;;;;;;;;4897110;27;106501;-66
2022/06/14 03:37:14;;;;;;;;;;;;;;;;;;4910676;28;106300;-66
2022/06/14 03:39:41;;;;;;;;;;;;;;;;;;4903469;28;109112;-66
2022/06/14 03:42:07;;;;;;;;;;;;;;;;;;4909236;28;112715;-66
2022/06/14 03:44:34;;;;;;;;;;;;;;;;;;4904727;27;126347;-67
2022/06/14 03:47:00;;;;;;;;;;;;;;;;;;4890593;28;129825;-66
2022/06/14 03:49:27;;;;;;;;;;;;;;;;;;4897409;28;115937;-66
2022/06/14 03:51:53;;;;;;;;;;;;;;;;;;4896930;28;127617;-66
2022/06/14 03:54:20;;;;;;;;;;;;;;;;;;4904742;28;128872;-66
2022/06/14 03:56:46;;;;;;;;;;;;;;;;;;4910150;28;105920;-66
2022/06/14 03:59:13;;;;;;;;;;;;;;;;;;4899967;28;136168;-66
2022/06/14 04:01:39;;;;;;;;;;;;;;;;;;4904687;28;117628;-66
2022/06/14 04:04:05;;;;;;;;;;;;;;;;;;4907951;28;134170;-67
2022/06/14 04:06:32;;;;;;;;;;;;;;;;;;4899186;28;137210;-66
2022/06/14 04:08:58;;;;;;;;;;;;;;;;;;4908512;28;106157;-66
2022/06/14 04:11:24;;;;;;;;;;;;;;;;;;4895488;28;125588;-66
2022/06/14 04:13:51;;;;;;;;;;;;;;;;;;4904716;28;108771;-66
2022/06/14 04:16:17;;;;;;;;;;;;;;;;;;4890497;28;106768;-66
2022/06/14 04:18:43;;;;;;;;;;;;;;;;;;4908166;28;129858;-66
2022/06/14 04:21:10;;;;;;;;;;;;;;;;;;4907609;28;125934;-66
2022/06/14 04:23:36;;;;;;;;;;;;;;;;;;4903711;28;123235;-67
2022/06/14 04:26:02;;;;;;;;;;;;;;;;;;4902940;28;127800;-65
2022/06/14 04:28:29;;;;;;;;;;;;;;;;;;4912963;27;106080;-66
2022/06/14 04:30:55;;;;;;;;;;;;;;;;;;4898508;28;106767;-66
2022/06/14 04:33:23;;;;;;;;;;;;;;;;;;4909067;27;132608;-67
2022/06/14 04:35:50;;;;;;;;;;;;;;;;;;4907082;28;119351;-66
2022/06/14 04:38:16;;;;;;;;;;;;;;;;;;4905158;27;122703;-66
2022/06/14 04:40:42;;;;;;;;;;;;;;;;;;4909058;27;106415;-66
2022/06/14 04:43:09;;;;;;;;;;;;;;;;;;4910167;28;117631;-66
2022/06/14 04:45:35;;;;;;;;;;;;;;;;;;4909400;27;110341;-66
2022/06/14 04:48:01;;;;;;;;;;;;;;;;;;4907272;28;109378;-66
2022/06/14 04:50:28;;;;;;;;;;;;;;;;;;4905262;28;124042;-66
2022/06/14 04:52:54;;;;;;;;;;;;;;;;;;4900783;28;126274;-67
2022/06/14 04:55:20;;;;;;;;;;;;;;;;;;4901031;28;107440;-66
2022/06/14 04:57:48;;;;;;;;;;;;;;;;;;4907892;28;121745;-66
2022/06/14 05:00:14;;;;;;;;;;;;;;;;;;4907559;28;135412;-66
2022/06/14 05:02:40;;;;;;;;;;;;;;;;;;4911696;27;107214;-66
2022/06/14 05:05:07;;;;;;;;;;;;;;;;;;4908464;28;117209;-66
2022/06/14 05:07:33;;;;;;;;;;;;;;;;;;4899017;28;107545;-66
2022/06/14 05:09:59;;;;;;;;;;;;;;;;;;4902483;28;135197;-66
2022/06/14 05:12:26;;;;;;;;;;;;;;;;;;4893227;28;107367;-65
2022/06/14 05:14:52;;;;;;;;;;;;;;;;;;4901159;28;106353;-66
2022/06/14 05:17:18;;;;;;;;;;;;;;;;;;4910196;28;113655;-65
2022/06/14 05:19:45;;;;;;;;;;;;;;;;;;4897900;28;134772;-66
2022/06/14 05:22:11;;;;;;;;;;;;;;;;;;4901705;28;106505;-69
2022/06/14 05:24:37;;;;;;;;;;;;;;;;;;4893663;28;116311;-65
2022/06/14 05:27:04;;;;;;;;;;;;;;;;;;4913052;28;125284;-66
2022/06/14 05:29:30;;;;;;;;;;;;;;;;;;4906525;28;117876;-65
2022/06/14 05:31:57;;;;;;;;;;;;;;;;;;4899965;28;117214;-65
2022/06/14 05:34:23;;;;;;;;;;;;;;;;;;4912145;27;106139;-65
2022/06/14 05:36:49;;;;;;;;;;;;;;;;;;4893575;28;134327;-65
2022/06/14 05:39:16;;;;;;;;;;;;;;;;;;4908486;27;107396;-66
2022/06/14 05:41:42;;;;;;;;;;;;;;;;;;4912189;28;106930;-65
2022/06/14 05:44:08;;;;;;;;;;;;;;;;;;4914498;27;123397;-66
2022/06/14 05:46:35;;;;;;;;;;;;;;;;;;4898084;28;119297;-66
2022/06/14 05:49:02;;;;;;;;;;;;;;;;;;4907552;28;106911;-66
2022/06/14 05:51:28;;;;;;;;;;;;;;;;;;4902545;28;132317;-65
2022/06/14 05:53:55;;;;;;;;;;;;;;;;;;4908815;27;118306;-65
2022/06/14 05:56:21;;;;;;;;;;;;;;;;;;4911731;28;105804;-67
2022/06/14 05:58:47;;;;;;;;;;;;;;;;;;4906627;28;138043;-65
2022/06/14 06:01:14;;;;;;;;;;;;;;;;;;4909595;28;118637;-65
2022/06/14 06:03:40;;;;;;;;;;;;;;;;;;4908591;28;115734;-65
2022/06/14 06:06:06;;;;;;;;;;;;;;;;;;4909478;28;125716;-65
2022/06/14 06:08:33;;;;;;;;;;;;;;;;;;4909139;28;119027;-66
2022/06/14 06:10:59;;;;;;;;;;;;;;;;;;4907338;28;110625;-66
2022/06/14 06:13:25;;;;;;;;;;;;;;;;;;4915875;27;108033;-65
2022/06/14 06:15:52;;;;;;;;;;;;;;;;;;4898385;28;123383;-65
2022/06/14 06:18:18;;;;;;;;;;;;;;;;;;4908447;27;108633;-65
2022/06/14 06:20:45;;;;;;;;;;;;;;;;;;4905995;28;107009;-66
2022/06/14 06:23:11;;;;;;;;;;;;;;;;;;4899501;28;106524;-67
2022/06/14 06:25:37;;;;;;;;;;;;;;;;;;4910753;28;122302;-66
2022/06/14 06:28:04;;;;;;;;;;;;;;;;;;4909067;28;106601;-66
2022/06/14 06:30:30;;;;;;;;;;;;;;;;;;4900630;28;124360;-66
2022/06/14 06:32:57;;;;;;;;;;;;;;;;;;4909975;28;106193;-66
2022/06/14 06:35:23;;;;;;;;;;;;;;;;;;4906333;28;119996;-69
2022/06/14 06:37:49;;;;;;;;;;;;;;;;;;4910339;28;107345;-69
2022/06/14 06:40:16;;;;;;;;;;;;;;;;;;4904751;27;118618;-68
2022/06/14 06:42:42;;;;;;;;;;;;;;;;;;4909330;28;128219;-67
2022/06/14 06:45:11;;;;;;;;;;;;;;;;;;4902905;28;107512;-76
2022/06/14 06:47:37;;;;;;;;;;;;;;;;;;4908717;28;105716;-69
2022/06/14 06:50:03;;;;;;;;;;;;;;;;;;4906324;28;135455;-69
2022/06/14 06:52:30;;;;;;;;;;;;;;;;;;4903140;28;134494;-68
2022/06/14 06:54:56;;;;;;;;;;;;;;;;;;4906518;28;126605;-68
2022/06/14 06:57:23;;;;;;;;;;;;;;;;;;4910101;27;127355;-68
2022/06/14 06:59:52;;;;;;;;;;;;;;;;;;4901036;28;107049;-67
2022/06/14 07:02:18;;;;;;;;;;;;;;;;;;4906656;28;118795;-68
2022/06/14 07:05:03;;;;;;;;;;;;;;;;;;4916856;27;125262;-68
2022/06/14 07:07:29;;;;;;;;;;;;;;;;;;4900226;28;106090;-68
2022/06/14 07:09:55;;;;;;;;;;;;;;;;;;4903866;28;120885;-67
2022/06/14 07:12:22;;;;;;;;;;;;;;;;;;4901655;28;121479;-67
2022/06/14 07:14:48;;;;;;;;;;;;;;;;;;4909636;27;115737;-67
2022/06/14 07:17:14;;;;;;;;;;;;;;;;;;4902904;28;107617;-67
2022/06/14 07:19:41;;;;;;;;;;;;;;;;;;4904245;28;106556;-67
2022/06/14 07:22:07;;;;;;;;;;;;;;;;;;4906880;28;122892;-67
2022/06/14 07:24:34;;;;;;;;;;;;;;;;;;4897623;28;106905;-67
2022/06/14 07:27:13;;;;;;;;;;;;;;;;;;4901165;28;106566;-66
2022/06/14 07:29:40;;;;;;;;;;;;;;;;;;4900365;28;132788;-67
2022/06/14 07:32:06;;;;;;;;;;;;;;;;;;4907448;28;132259;-67
2022/06/14 07:34:32;;;;;;;;;;;;;;;;;;4903349;28;106115;-67
2022/06/14 07:36:59;;;;;;;;;;;;;;;;;;4909055;28;108330;-71
2022/06/14 07:39:25;;;;;;;;;;;;;;;;;;4894844;28;120153;-69
2022/06/14 07:41:52;;;;;;;;;;;;;;;;;;4907222;27;107338;-69
2022/06/14 07:44:18;;;;;;;;;;;;;;;;;;4897181;27;107525;-68
2022/06/14 07:46:44;;;;;;;;;;;;;;;;;;4901927;27;105976;-66
2022/06/14 07:49:11;;;;;;;;;;;;;;;;;;4901820;28;121505;-67
2022/06/14 07:51:37;;;;;;;;;;;;;;;;;;4909798;28;115719;-68
2022/06/14 07:54:04;;;;;;;;;;;;;;;;;;4896839;28;107251;-68
2022/06/14 07:56:35;;;;;;;;;;;;;;;;;;4909905;28;116686;-68
2022/06/14 07:59:01;;;;;;;;;;;;;;;;;;4900316;28;106140;-67
2022/06/14 08:01:28;;;;;;;;;;;;;;;;;;4905163;28;123778;-67
2022/06/14 08:03:55;;;;;;;;;;;;;;;;;;4905672;28;135831;-67
2022/06/14 08:06:21;;;;;;;;;;;;;;;;;;4908467;28;105981;-68
2022/06/14 08:08:48;;;;;;;;;;;;;;;;;;4897729;28;137751;-67
2022/06/14 08:11:14;;;;;;;;;;;;;;;;;;4906828;28;136447;-67
2022/06/14 08:13:40;;;;;;;;;;;;;;;;;;4904813;28;116795;-67
2022/06/14 08:16:07;;;;;;;;;;;;;;;;;;4901162;28;133276;-67
2022/06/14 08:18:37;;;;;;;;;;;;;;;;;;4907947;28;126464;-67
2022/06/14 08:21:03;;;;;;;;;;;;;;;;;;4900061;28;133477;-66
2022/06/14 08:23:29;;;;;;;;;;;;;;;;;;4903473;28;127004;-67
2022/06/14 08:25:56;;;;;;;;;;;;;;;;;;4903119;28;108443;-67
2022/06/14 08:28:23;;;;;;;;;;;;;;;;;;4903950;28;128624;-67
2022/06/14 08:30:50;;;;;;;;;;;;;;;;;;4899710;28;121996;-67
2022/06/14 08:33:16;;;;;;;;;;;;;;;;;;4902161;28;110215;-67
2022/06/14 08:35:42;;;;;;;;;;;;;;;;;;4909433;28;106312;-67
2022/06/14 08:38:11;;;;;;;;;;;;;;;;;;4893375;28;130043;-68
2022/06/14 08:40:41;;;;;;;;;;;;;;;;;;4900173;28;106619;-67
2022/06/14 08:43:08;;;;;;;;;;;;;;;;;;4902540;28;134903;-67
2022/06/14 08:45:35;;;;;;;;;;;;;;;;;;4906576;28;118283;-68
2022/06/14 08:48:01;;;;;;;;;;;;;;;;;;4894581;28;125084;-67
2022/06/14 08:50:27;;;;;;;;;;;;;;;;;;4903074;28;129227;-67
2022/06/14 08:52:54;;;;;;;;;;;;;;;;;;4908553;28;106629;-67
2022/06/14 08:55:20;;;;;;;;;;;;;;;;;;4907237;28;106647;-67
2022/06/14 08:57:46;;;;;;;;;;;;;;;;;;4905649;28;132087;-67
2022/06/14 09:00:13;;;;;;;;;;;;;;;;;;4905899;28;115571;-67
2022/06/14 09:02:39;;;;;;;;;;;;;;;;;;4894224;28;122755;-67
2022/06/14 09:05:06;;;;;;;;;;;;;;;;;;4893592;28;107537;-67
2022/06/14 09:07:32;;;;;;;;;;;;;;;;;;4903182;28;124882;-67
2022/06/14 09:09:58;;;;;;;;;;;;;;;;;;4906177;28;119073;-67
2022/06/14 09:12:25;;;;;;;;;;;;;;;;;;4911069;28;106331;-67
2022/06/14 09:14:54;;;;;;;;;;;;;;;;;;4898310;28;106146;-67
2022/06/14 09:17:20;;;;;;;;;;;;;;;;;;4903748;28;135778;-68
2022/06/14 09:20:06;;;;;;;;;;;;;;;;;;4906538;28;106151;-68
2022/06/14 09:22:33;;;;;;;;;;;;;;;;;;4903193;28;122803;-68
2022/06/14 09:24:59;;;;;;;;;;;;;;;;;;4911953;28;132980;-68
2022/06/14 09:27:25;;;;;;;;;;;;;;;;;;4908404;28;107111;-68
2022/06/14 09:29:52;;;;;;;;;;;;;;;;;;4909451;28;120443;-68
2022/06/14 09:32:18;;;;;;;;;;;;;;;;;;4904367;28;118722;-68
2022/06/14 09:34:45;;;;;;;;;;;;;;;;;;4909529;28;136558;-68
2022/06/14 09:37:11;;;;;;;;;;;;;;;;;;4909155;28;107767;-68
2022/06/14 09:39:37;;;;;;;;;;;;;;;;;;4908662;28;106745;-67
2022/06/14 09:42:04;;;;;;;;;;;;;;;;;;4907377;28;136566;-68
2022/06/14 09:44:30;;;;;;;;;;;;;;;;;;4907335;28;109347;-67
2022/06/14 09:46:57;;;;;;;;;;;;;;;;;;4910569;28;117572;-69
2022/06/14 09:49:23;;;;;;;;;;;;;;;;;;4902222;28;120384;-70
2022/06/14 09:51:49;;;;;;;;;;;;;;;;;;4906713;28;106295;-69
2022/06/14 09:54:17;;;;;;;;;;;;;;;;;;4905951;28;116298;-69
2022/06/14 09:56:43;;;;;;;;;;;;;;;;;;4909193;28;127393;-70
2022/06/14 09:59:09;;;;;;;;;;;;;;;;;;4906019;28;106287;-70
2022/06/14 10:01:36;;;;;;;;;;;;;;;;;;4908923;28;130374;-71
2022/06/14 10:04:02;;;;;;;;;;;;;;;;;;4906929;28;112744;-70
2022/06/14 10:06:29;;;;;;;;;;;;;;;;;;4914861;28;106448;-71
2022/06/14 10:08:55;;;;;;;;;;;;;;;;;;4904803;28;107359;-70
2022/06/14 10:11:22;;;;;;;;;;;;;;;;;;4908803;28;106135;-70
2022/06/14 10:13:48;;;;;;;;;;;;;;;;;;4902933;28;135658;-70
2022/06/14 10:16:15;;;;;;;;;;;;;;;;;;4905403;28;128410;-70
2022/06/14 10:18:41;;;;;;;;;;;;;;;;;;4908743;28;119321;-70
2022/06/14 10:21:07;;;;;;;;;;;;;;;;;;4905085;28;134662;-70
2022/06/14 10:23:34;;;;;;;;;;;;;;;;;;4907042;28;137202;-70
2022/06/14 10:28:45;;;;;;;;;;;;;;;;;;4908499;28;136150;-68
2022/06/14 10:31:11;;;;;;;;;;;;;;;;;;4907699;28;106737;-68
2022/06/14 10:33:39;;;;;;;;;;;;;;;;;;4904951;28;136080;-68
2022/06/14 10:36:05;;;;;;;;;;;;;;;;;;4901599;28;124447;-68
2022/06/14 10:38:32;;;;;;;;;;;;;;;;;;4904635;28;116924;-68
2022/06/14 10:40:58;;;;;;;;;;;;;;;;;;4910956;28;114509;-68
2022/06/14 10:43:24;;;;;;;;;;;;;;;;;;4907485;28;108039;-68
2022/06/14 10:46:00;;;;;;;;;;;;;;;;;;4909650;28;119000;-67
2022/06/14 10:48:27;;;;;;;;;;;;;;;;;;4905704;28;134758;-68
2022/06/14 10:50:53;;;;;;;;;;;;;;;;;;4909424;28;135802;-68
2022/06/14 10:53:19;;;;;;;;;;;;;;;;;;4908821;28;127280;-69
2022/06/14 10:55:46;;;;;;;;;;;;;;;;;;4906304;28;107210;-68
2022/06/14 10:58:12;;;;;;;;;;;;;;;;;;4899648;28;119361;-67
2022/06/14 11:00:38;;;;;;;;;;;;;;;;;;4906079;28;117985;-68
2022/06/14 11:03:05;;;;;;;;;;;;;;;;;;4905027;28;124254;-68
2022/06/14 11:05:31;;;;;;;;;;;;;;;;;;4910018;28;106613;-68
2022/06/14 11:07:57;;;;;;;;;;;;;;;;;;4905959;28;133644;-68
2022/06/14 11:10:24;;;;;;;;;;;;;;;;;;4902638;28;112555;-68
2022/06/14 11:12:50;;;;;;;;;;;;;;;;;;4909078;28;106931;-68
2022/06/14 11:15:16;;;;;;;;;;;;;;;;;;4901664;28;136346;-67
2022/06/14 11:17:43;;;;;;;;;;;;;;;;;;4899896;28;118509;-68
2022/06/14 11:20:09;;;;;;;;;;;;;;;;;;4908223;28;130189;-68
2022/06/14 11:22:35;;;;;;;;;;;;;;;;;;4905303;28;136119;-68
2022/06/14 11:25:02;;;;;;;;;;;;;;;;;;4908830;28;110885;-68
2022/06/14 11:27:28;;;;;;;;;;;;;;;;;;4905376;28;136733;-68
2022/06/14 11:29:54;;;;;;;;;;;;;;;;;;4906270;28;113322;-68
2022/06/14 11:32:21;;;;;;;;;;;;;;;;;;4900434;28;118523;-68
2022/06/14 11:34:47;;;;;;;;;;;;;;;;;;4905249;28;107760;-68
2022/06/14 11:37:14;;;;;;;;;;;;;;;;;;4902696;28;107188;-68
2022/06/14 11:39:40;;;;;;;;;;;;;;;;;;4905815;28;109108;-68
2022/06/14 11:42:06;;;;;;;;;;;;;;;;;;4906618;28;137155;-68
2022/06/14 11:44:33;;;;;;;;;;;;;;;;;;4908261;28;106535;-68
2022/06/14 11:46:59;;;;;;;;;;;;;;;;;;4904063;28;130027;-68
2022/06/14 11:49:27;;;;;;;;;;;;;;;;;;4904340;28;113860;-68
2022/06/14 11:51:53;;;;;;;;;;;;;;;;;;4904703;28;106300;-68
2022/06/14 11:54:20;;;;;;;;;;;;;;;;;;4904484;28;137476;-68
2022/06/14 11:56:46;;;;;;;;;;;;;;;;;;4906772;28;106421;-68
2022/06/14 11:59:14;;;;;;;;;;;;;;;;;;4904894;28;137825;-68
2022/06/14 12:01:40;;;;;;;;;;;;;;;;;;4899108;28;122284;-68
2022/06/14 12:04:07;;;;;;;;;;;;;;;;;;4906742;28;107110;-68
2022/06/14 12:06:36;;;;;;;;;;;;;;;;;;4901830;28;132540;-68
2022/06/14 12:09:03;;;;;;;;;;;;;;;;;;4893197;28;137173;-68
2022/06/14 12:11:34;;;;;;;;;;;;;;;;;;4907340;28;108928;-68
2022/06/14 12:14:01;;;;;;;;;;;;;;;;;;4905873;28;127742;-68
2022/06/14 12:16:27;;;;;;;;;;;;;;;;;;4899658;28;131353;-68
2022/06/14 12:18:53;;;;;;;;;;;;;;;;;;4901961;28;118120;-68
2022/06/14 12:21:28;;;;;;;;;;;;;;;;;;4906842;28;130904;-68
2022/06/14 12:23:55;;;;;;;;;;;;;;;;;;4896037;28;114632;-67
2022/06/14 12:26:37;;;;;;;;;;;;;;;;;;4890412;28;107541;-68
2022/06/14 12:29:04;;;;;;;;;;;;;;;;;;4901565;28;115976;-67
2022/06/14 12:31:30;;;;;;;;;;;;;;;;;;4906407;28;112852;-67
2022/06/14 12:33:56;;;;;;;;;;;;;;;;;;4905740;28;108086;-67
2022/06/14 12:36:23;;;;;;;;;;;;;;;;;;4905168;28;108057;-68
2022/06/14 12:38:49;;;;;;;;;;;;;;;;;;4909330;28;118117;-68
2022/06/14 12:41:15;;;;;;;;;;;;;;;;;;4906394;28;107737;-68
2022/06/14 12:43:42;;;;;;;;;;;;;;;;;;4903091;27;106711;-68
2022/06/14 12:46:08;;;;;;;;;;;;;;;;;;4897245;27;129409;-68
2022/06/14 12:48:34;;;;;;;;;;;;;;;;;;4897398;27;115024;-74
2022/06/14 12:51:01;;;;;;;;;;;;;;;;;;4906329;28;106271;-66
2022/06/14 12:53:30;;;;;;;;;;;;;;;;;;4900613;28;110283;-71
2022/06/14 12:55:56;;;;;;;;;;;;;;;;;;4903063;28;135124;-68
2022/06/14 12:58:22;;;;;;;;;;;;;;;;;;4905102;28;120625;-70
2022/06/14 13:00:49;;;;;;;;;;;;;;;;;;4901334;28;133356;-70
2022/06/14 13:03:16;;;;;;;;;;;;;;;;;;4928882;28;106792;-70
2022/06/14 13:05:43;;;;;;;;;;;;;;;;;;4939449;28;136505;-70
2022/06/14 13:08:09;;;;;;;;;;;;;;;;;;4917564;28;137904;-70
2022/06/14 13:10:35;;;;;;;;;;;;;;;;;;4918848;27;107026;-71
2022/06/14 13:13:02;;;;;;;;;;;;;;;;;;4894140;28;130825;-70
2022/06/14 13:15:28;;;;;;;;;;;;;;;;;;4909818;27;122600;-70
2022/06/14 13:17:55;;;;;;;;;;;;;;;;;;4905670;27;115721;-69
2022/06/14 13:20:21;;;;;;;;;;;;;;;;;;4899029;28;107775;-69
2022/06/14 13:22:49;;;;;;;;;;;;;;;;;;4904406;28;115350;-70
2022/06/14 13:25:16;;;;;;;;;;;;;;;;;;4898975;28;134733;-70
2022/06/14 13:27:42;;;;;;;;;;;;;;;;;;4906285;28;133836;-70
2022/06/14 13:30:08;;;;;;;;;;;;;;;;;;4903761;28;107356;-71
2022/06/14 13:32:35;;;;;;;;;;;;;;;;;;4901555;27;136655;-71
2022/06/14 13:35:01;;;;;;;;;;;;;;;;;;4900343;28;110241;-70
2022/06/14 13:37:29;;;;;;;;;;;;;;;;;;4888309;28;116823;-71
2022/06/14 13:39:55;;;;;;;;;;;;;;;;;;4899436;28;136236;-71
2022/06/14 13:42:22;;;;;;;;;;;;;;;;;;4892215;28;117531;-71
2022/06/14 13:44:48;;;;;;;;;;;;;;;;;;4899680;28;109370;-72
2022/06/14 13:47:14;;;;;;;;;;;;;;;;;;4890124;28;116020;-71
2022/06/14 13:49:42;;;;;;;;;;;;;;;;;;4899268;28;107876;-71
2022/06/14 13:52:08;;;;;;;;;;;;;;;;;;4895100;28;137973;-72
2022/06/14 13:54:35;;;;;;;;;;;;;;;;;;4896886;27;109451;-70
2022/06/14 13:57:01;;;;;;;;;;;;;;;;;;4907901;27;107200;-70
2022/06/14 13:59:28;;;;;;;;;;;;;;;;;;4923513;27;135734;-71
2022/06/14 14:01:54;;;;;;;;;;;;;;;;;;4903177;27;118555;-70
2022/06/14 14:04:21;;;;;;;;;;;;;;;;;;4922097;27;106573;-70
2022/06/14 14:06:49;;;;;;;;;;;;;;;;;;4910939;27;132848;-70
2022/06/14 14:09:16;;;;;;;;;;;;;;;;;;4921146;27;111593;-70
2022/06/14 14:11:42;;;;;;;;;;;;;;;;;;4896200;27;135842;-69
2022/06/14 14:14:08;;;;;;;;;;;;;;;;;;4896733;27;135585;-71
2022/06/14 14:16:35;;;;;;;;;;;;;;;;;;4910202;27;106585;-71
2022/06/14 14:19:01;;;;;;;;;;;;;;;;;;4915499;28;138284;-71
2022/06/14 14:21:27;;;;;;;;;;;;;;;;;;4915245;27;120682;-71
2022/06/14 14:23:54;;;;;;;;;;;;;;;;;;4902351;27;108069;-71
2022/06/14 14:26:20;;;;;;;;;;;;;;;;;;4907295;27;136629;-71
2022/06/14 14:28:47;;;;;;;;;;;;;;;;;;4917944;27;107316;-71
2022/06/14 14:31:13;;;;;;;;;;;;;;;;;;4893521;28;136261;-71
2022/06/14 14:33:40;;;;;;;;;;;;;;;;;;4910825;28;109062;-71
2022/06/14 14:36:08;;;;;;;;;;;;;;;;;;4906340;28;106782;-71
2022/06/14 14:38:34;;;;;;;;;;;;;;;;;;4898768;27;138257;-71
2022/06/14 14:43:46;;;;;;;;;;;;;;;;;;4896826;28;106668;-71
2022/06/14 14:46:12;;;;;;;;;;;;;;;;;;4899674;28;109053;-71
2022/06/14 14:48:39;;;;;;;;;;;;;;;;;;4912027;27;132798;-71
2022/06/14 14:51:06;;;;;;;;;;;;;;;;;;4903453;28;118646;-71
2022/06/14 14:53:33;;;;;;;;;;;;;;;;;;4900203;27;133324;-71
2022/06/14 14:55:59;;;;;;;;;;;;;;;;;;4902146;27;111787;-71
2022/06/14 14:58:26;;;;;;;;;;;;;;;;;;4893143;28;128238;-71
2022/06/14 15:06:23;;;;;;;;;;;;;;;;;;4895470;27;137133;-71
2022/06/14 15:08:50;;;;;;;;;;;;;;;;;;4910118;27;109506;-72
2022/06/14 15:11:16;;;;;;;;;;;;;;;;;;4906040;28;107016;-72
2022/06/14 15:13:43;;;;;;;;;;;;;;;;;;4903807;28;137913;-71
2022/06/14 15:16:09;;;;;;;;;;;;;;;;;;4903572;28;109857;-71
2022/06/14 15:21:21;;;;;;;;;;;;;;;;;;4901961;28;108806;-71
2022/06/14 15:23:47;;;;;;;;;;;;;;;;;;4902943;27;106846;-73
2022/06/14 15:26:16;;;;;;;;;;;;;;;;;;4901331;28;107599;-72
2022/06/14 15:28:42;;;;;;;;;;;;;;;;;;4901101;27;135156;-72
2022/06/14 15:31:08;;;;;;;;;;;;;;;;;;4901913;28;107290;-72
2022/06/14 15:33:35;;;;;;;;;;;;;;;;;;4892136;27;136986;-71
2022/06/14 15:36:01;;;;;;;;;;;;;;;;;;4915586;27;107108;-70
2022/06/14 15:38:27;;;;;;;;;;;;;;;;;;4902830;27;115941;-71
2022/06/14 15:40:54;;;;;;;;;;;;;;;;;;4911815;27;133769;-72
2022/06/14 15:43:20;;;;;;;;;;;;;;;;;;4903113;27;107597;-69
2022/06/14 15:45:46;;;;;;;;;;;;;;;;;;4895083;28;137293;-71
2022/06/14 15:48:13;;;;;;;;;;;;;;;;;;4900254;28;138080;-68
2022/06/14 15:50:39;;;;;;;;;;;;;;;;;;4901386;27;108650;-70
2022/06/14 15:53:05;;;;;;;;;;;;;;;;;;4910554;27;107102;-68
2022/06/14 15:55:32;;;;;;;;;;;;;;;;;;4904815;27;108250;-69
2022/06/14 15:57:58;;;;;;;;;;;;;;;;;;4903607;27;137833;-68
2022/06/14 16:00:24;;;;;;;;;;;;;;;;;;4898007;27;131825;-70
2022/06/14 16:02:51;;;;;;;;;;;;;;;;;;4906245;28;118342;-69
2022/06/14 16:05:17;;;;;;;;;;;;;;;;;;4912920;27;136060;-70
2022/06/14 16:07:43;;;;;;;;;;;;;;;;;;4900678;27;131153;-69
2022/06/14 16:10:10;;;;;;;;;;;;;;;;;;4906552;27;106625;-69
2022/06/14 16:12:37;;;;;;;;;;;;;;;;;;4902232;28;117219;-68
2022/06/14 16:15:03;;;;;;;;;;;;;;;;;;4912061;27;137442;-69
2022/06/14 16:17:30;;;;;;;;;;;;;;;;;;4906974;27;137187;-69
2022/06/14 16:19:56;;;;;;;;;;;;;;;;;;4909523;27;112663;-68
2022/06/14 16:22:22;;;;;;;;;;;;;;;;;;4898833;27;113781;-68
2022/06/14 16:24:49;;;;;;;;;;;;;;;;;;4905985;27;135108;-68
2022/06/14 16:27:15;;;;;;;;;;;;;;;;;;4900512;28;109481;-68
2022/06/14 16:29:41;;;;;;;;;;;;;;;;;;4897341;28;107029;-68
2022/06/14 16:32:08;;;;;;;;;;;;;;;;;;4906563;27;120990;-68
2022/06/14 16:34:34;;;;;;;;;;;;;;;;;;4902409;27;137858;-69
2022/06/14 16:37:01;;;;;;;;;;;;;;;;;;4911050;28;106133;-68
2022/06/14 16:39:27;;;;;;;;;;;;;;;;;;4904085;27;108271;-67
2022/06/14 16:41:53;;;;;;;;;;;;;;;;;;4897905;27;118123;-68